Time;durP1;ratioP1;P1;durP2;ratioP2;P2;SDS_P1;SDS_P2;PMS_P1;PMS_P2;Temp;Humidity;BMP_temperature;BMP_pressure;BME280_temperature;BME280_humidity;BME280_pressure;Samples;Min_cycle;Max_cycle;Signal;HPM_P1;HPM_P2
2023/12/05 00:01:19;;;;;;;;;0.00;0.00;;;;;11.04;84.81;99554.06;5055102;28;45402;-68
2023/12/05 00:03:45;;;;;;;;;0.00;0.00;;;;;11.00;85.16;99560.47;5042851;28;45467;-68
2023/12/05 00:06:11;;;;;;;;;1.00;0.00;;;;;10.92;84.86;99547.53;5040324;28;45402;-67
2023/12/05 00:08:36;;;;;;;;;0.00;0.00;;;;;11.00;84.61;99559.63;5053876;28;45454;-68
2023/12/05 00:11:08;;;;;;;;;0.50;0.50;;;;;11.01;84.58;99559.56;5069234;28;46304;-68
2023/12/05 00:13:34;;;;;;;;;0.00;0.00;;;;;11.00;84.50;99572.97;5023665;28;45599;-68
2023/12/05 00:15:59;;;;;;;;;0.00;0.00;;;;;10.99;84.77;99564.09;5041781;28;45402;-68
2023/12/05 00:18:25;;;;;;;;;0.00;0.00;;;;;11.03;84.56;99575.50;5048599;28;45375;-68
2023/12/05 00:20:51;;;;;;;;;0.00;0.00;;;;;10.99;84.70;99576.59;5048371;28;45605;-68
2023/12/05 00:23:16;;;;;;;;;0.00;0.00;;;;;11.06;84.38;99576.19;5041415;28;45449;-67
2023/12/05 00:25:42;;;;;;;;;0.00;0.00;;;;;10.94;84.51;99568.81;5041611;28;45402;-68
2023/12/05 00:28:07;;;;;;;;;0.00;0.00;;;;;10.99;84.49;99577.44;5051356;28;57381;-68
2023/12/05 00:30:32;;;;;;;;;2.00;0.00;;;;;11.01;83.91;99575.56;5040778;28;48103;-68
2023/12/05 00:32:58;;;;;;;;;0.00;0.00;;;;;10.99;84.11;99566.75;5042250;28;45426;-68
2023/12/05 00:35:24;;;;;;;;;1.00;0.00;;;;;11.04;83.86;99567.41;5041587;28;45390;-68
2023/12/05 00:37:49;;;;;;;;;0.00;0.00;;;;;10.96;83.90;99564.28;5056559;28;45454;-67
2023/12/05 00:40:15;;;;;;;;;0.00;0.00;;;;;10.98;83.85;99564.19;5061577;28;46381;-68
2023/12/05 00:42:40;;;;;;;;;0.00;0.00;;;;;10.94;83.80;99564.34;5038058;28;45305;-68
2023/12/05 00:45:06;;;;;;;;;0.00;0.00;;;;;11.03;83.85;99587.03;5053264;28;45310;-68
2023/12/05 00:47:31;;;;;;;;;0.00;0.00;;;;;10.97;83.91;99565.13;5042480;28;45586;-68
2023/12/05 00:49:57;;;;;;;;;1.00;1.00;;;;;11.03;83.36;99576.34;5035017;28;47890;-68
2023/12/05 00:52:22;;;;;;;;;0.00;0.00;;;;;11.01;83.20;99572.00;5056233;28;45360;-68
2023/12/05 00:54:47;;;;;;;;;0.75;0.75;;;;;10.99;83.50;99563.22;5048819;28;45510;-68
2023/12/05 00:57:13;;;;;;;;;0.00;0.00;;;;;11.03;83.38;99575.50;5043921;28;51315;-68
2023/12/05 00:59:38;;;;;;;;;0.00;0.00;;;;;11.01;83.13;99588.03;5033892;28;45968;-68
2023/12/05 01:02:04;;;;;;;;;0.00;0.00;;;;;10.94;82.87;99587.50;5039492;28;46244;-68
2023/12/05 01:04:29;;;;;;;;;0.00;0.00;;;;;10.79;82.83;99566.94;5061404;28;45295;-68
2023/12/05 01:06:54;;;;;;;;;0.00;0.00;;;;;10.92;82.80;99587.56;5074261;28;45429;-68
2023/12/05 01:09:20;;;;;;;;;0.00;0.00;;;;;10.83;82.78;99580.06;5048225;28;65872;-68
2023/12/05 01:11:45;;;;;;;;;1.00;1.00;;;;;10.87;82.81;99578.94;5022452;28;48144;-68
2023/12/05 01:14:10;;;;;;;;;0.00;0.00;;;;;10.95;82.85;99591.91;5034782;28;45379;-68
2023/12/05 01:16:43;;;;;;;;;0.00;0.00;;;;;10.99;82.96;99595.28;5047791;28;46438;-68
2023/12/05 01:19:09;;;;;;;;;0.75;0.00;;;;;10.95;82.87;99586.56;5037187;28;47434;-68
2023/12/05 01:21:35;;;;;;;;;0.00;0.00;;;;;11.01;82.63;99604.94;5066002;28;45795;-68
2023/12/05 01:24:00;;;;;;;;;0.00;0.00;;;;;10.90;82.20;99592.13;5037533;28;45479;-67
2023/12/05 01:26:25;;;;;;;;;0.50;0.50;;;;;11.00;82.20;99605.88;5027838;28;45738;-67
2023/12/05 01:28:50;;;;;;;;;1.00;0.00;;;;;10.94;82.48;99603.53;5050202;28;46291;-68
2023/12/05 01:31:16;;;;;;;;;0.00;0.00;;;;;11.00;82.43;99613.03;5026968;28;61838;-67
2023/12/05 01:33:41;;;;;;;;;0.00;0.00;;;;;10.89;82.20;99587.75;5060873;28;45415;-67
2023/12/05 01:36:10;;;;;;;;;1.00;0.00;;;;;11.00;82.37;99615.72;5042001;28;57168;-68
2023/12/05 01:38:36;;;;;;;;;0.50;0.00;;;;;10.99;82.07;99613.97;5049034;28;45951;-68
2023/12/05 01:41:01;;;;;;;;;0.75;0.00;;;;;10.99;81.85;99613.97;5055119;28;45371;-68
2023/12/05 01:43:26;;;;;;;;;2.00;0.00;;;;;10.88;81.66;99588.69;5042112;28;45440;-68
2023/12/05 01:45:53;;;;;;;;;0.00;0.00;;;;;10.88;81.42;99604.72;5033801;28;45495;-68
2023/12/05 01:48:19;;;;;;;;;0.00;0.00;;;;;10.89;81.36;99602.91;5052507;28;45419;-68
2023/12/05 01:50:45;;;;;;;;;0.00;0.00;;;;;10.89;81.37;99611.78;5023165;28;45341;-68
2023/12/05 01:53:12;;;;;;;;;0.00;0.00;;;;;10.91;81.15;99619.72;5034337;28;45441;-68
2023/12/05 01:55:37;;;;;;;;;0.00;0.00;;;;;10.90;81.39;99624.19;5054460;28;45383;-67
2023/12/05 01:58:06;;;;;;;;;0.00;0.00;;;;;10.87;81.24;99613.66;5052752;28;46585;-68
2023/12/05 02:00:31;;;;;;;;;0.50;0.00;;;;;10.83;80.97;99608.56;5035830;28;45296;-68
2023/12/05 02:02:57;;;;;;;;;1.75;0.75;;;;;10.82;80.96;99606.84;5034906;28;45507;-68
2023/12/05 02:05:22;;;;;;;;;0.50;0.50;;;;;10.88;80.59;99634.09;5041746;28;45569;-68
2023/12/05 02:07:48;;;;;;;;;0.00;0.00;;;;;10.90;80.76;99642.88;5059718;28;45442;-67
2023/12/05 02:10:13;;;;;;;;;0.50;0.00;;;;;10.74;80.81;99601.88;5040157;28;45277;-67
2023/12/05 02:12:39;;;;;;;;;0.00;0.00;;;;;10.77;80.11;99611.56;5040109;28;45304;-68
2023/12/05 02:15:06;;;;;;;;;0.50;0.00;;;;;10.85;80.33;99620.03;5039673;28;45450;-68
2023/12/05 02:17:44;;;;;;;;;0.00;0.00;;;;;10.92;79.99;99638.31;5034423;28;47666;-68
2023/12/05 02:20:48;;;;;;;;;0.00;0.00;;;;;10.92;80.65;99648.13;5048049;28;45327;-67
2023/12/05 02:23:39;;;;;;;;;0.75;0.00;;;;;10.88;80.58;99630.56;5043800;28;45348;-68
2023/12/05 02:26:15;;;;;;;;;0.00;0.00;;;;;10.71;80.59;99608.25;5042595;28;45364;-68
2023/12/05 02:28:41;;;;;;;;;0.25;0.00;;;;;10.89;80.39;99642.94;5065583;28;46476;-67
2023/12/05 02:31:07;;;;;;;;;0.00;0.00;;;;;10.88;80.83;99641.22;5030454;28;45507;-67
2023/12/05 02:33:33;;;;;;;;;1.00;0.00;;;;;10.89;80.90;99642.94;5056898;28;45449;-67
2023/12/05 02:36:32;;;;;;;;;1.75;0.00;;;;;10.93;81.43;99647.19;5049710;28;45442;-68
2023/12/05 02:39:14;;;;;;;;;0.00;0.00;;;;;10.86;80.90;99637.75;5050066;28;46369;-67
2023/12/05 02:41:43;;;;;;;;;0.00;0.00;;;;;10.78;81.41;99635.50;5042320;28;45363;-68
2023/12/05 02:44:12;;;;;;;;;0.00;0.00;;;;;10.90;81.32;99663.38;5039479;28;45451;-68
2023/12/05 02:46:41;;;;;;;;;0.00;0.00;;;;;10.77;81.33;99644.44;5039371;28;45481;-68
2023/12/05 02:49:07;;;;;;;;;0.00;0.00;;;;;10.72;81.58;99638.47;5039108;28;45427;-68
2023/12/05 02:51:33;;;;;;;;;1.25;0.00;;;;;10.79;81.77;99658.56;5040165;28;45802;-68
2023/12/05 02:54:03;;;;;;;;;0.00;0.00;;;;;10.83;82.35;99661.97;5039330;28;45488;-68
2023/12/05 02:56:29;;;;;;;;;0.00;0.00;;;;;10.64;82.24;99629.97;5039028;28;45433;-67
2023/12/05 02:58:54;;;;;;;;;0.00;0.00;;;;;10.86;82.70;99670.69;5044955;28;45408;-68
2023/12/05 03:01:20;;;;;;;;;0.00;0.00;;;;;10.87;82.61;99677.72;5041161;28;45758;-68
2023/12/05 03:03:45;;;;;;;;;0.00;0.00;;;;;10.67;82.09;99660.03;5035349;28;45383;-68
2023/12/05 03:06:10;;;;;;;;;1.25;0.00;;;;;10.75;82.41;99678.34;5034172;28;54689;-68
2023/12/05 03:08:36;;;;;;;;;0.00;0.00;;;;;10.66;82.46;99665.47;5038744;28;45300;-68
2023/12/05 03:11:01;;;;;;;;;1.00;0.00;;;;;10.68;82.76;99661.78;5032429;28;58043;-68
2023/12/05 03:13:27;;;;;;;;;0.00;0.00;;;;;10.69;82.44;99675.97;5053434;28;45418;-68
2023/12/05 03:15:53;;;;;;;;;0.00;0.00;;;;;10.62;82.25;99671.91;5043602;28;45332;-68
2023/12/05 03:18:18;;;;;;;;;0.00;0.00;;;;;10.62;82.15;99687.91;5042047;28;45446;-68
2023/12/05 03:20:43;;;;;;;;;0.00;0.00;;;;;10.58;82.20;99687.22;5028528;28;45811;-68
2023/12/05 03:23:09;;;;;;;;;0.00;0.00;;;;;10.59;82.02;99696.06;5034230;28;45423;-68
2023/12/05 03:25:34;;;;;;;;;0.00;0.00;;;;;10.51;82.60;99691.13;5041017;28;45320;-67
2023/12/05 03:27:59;;;;;;;;;0.00;0.00;;;;;10.53;82.84;99691.91;5047897;28;45808;-68
2023/12/05 03:30:25;;;;;;;;;1.00;0.00;;;;;10.42;82.53;99689.75;5048664;28;47078;-68
2023/12/05 03:32:50;;;;;;;;;0.00;0.00;;;;;10.50;82.49;99710.72;5033874;28;45415;-67
2023/12/05 03:35:15;;;;;;;;;0.00;0.00;;;;;10.35;82.12;99691.84;5038568;28;47754;-68
2023/12/05 03:37:40;;;;;;;;;0.00;0.00;;;;;10.34;81.78;99686.59;5052685;28;51985;-68
2023/12/05 03:40:06;;;;;;;;;0.00;0.00;;;;;10.41;81.72;99709.38;5058807;28;45370;-68
2023/12/05 03:42:32;;;;;;;;;0.75;0.00;;;;;10.36;81.51;99695.41;5041930;28;45419;-68
2023/12/05 03:44:57;;;;;;;;;0.00;0.00;;;;;10.24;81.98;99677.25;5030210;28;61901;-67
2023/12/05 03:47:22;;;;;;;;;0.00;0.00;;;;;10.17;81.76;99666.03;5055178;28;45371;-68
2023/12/05 03:49:48;;;;;;;;;0.00;0.00;;;;;10.30;80.79;99698.31;5043854;28;45421;-68
2023/12/05 03:52:13;;;;;;;;;0.00;0.00;;;;;10.20;81.96;99689.88;5038236;28;45397;-68
2023/12/05 03:54:38;;;;;;;;;0.00;0.00;;;;;10.24;81.89;99688.81;5030868;28;45604;-68
2023/12/05 03:57:04;;;;;;;;;0.00;0.00;;;;;10.14;81.65;99672.38;5054733;28;45587;-68
2023/12/05 03:59:29;;;;;;;;;0.00;0.00;;;;;10.19;81.72;99697.03;5048884;28;45372;-68
2023/12/05 04:01:54;;;;;;;;;0.00;0.00;;;;;10.20;81.51;99706.75;5040969;28;61197;-68
2023/12/05 04:04:19;;;;;;;;;0.00;0.00;;;;;10.03;82.36;99685.34;5039682;28;57560;-68
2023/12/05 04:06:45;;;;;;;;;0.00;0.00;;;;;9.91;82.11;99676.13;5054492;28;46280;-67
2023/12/05 04:09:10;;;;;;;;;0.00;0.00;;;;;9.93;82.49;99689.41;5030089;28;45343;-68
2023/12/05 04:11:36;;;;;;;;;0.00;0.00;;;;;10.04;82.28;99712.88;5054476;28;45549;-68
2023/12/05 04:14:01;;;;;;;;;0.00;0.00;;;;;9.96;82.73;99710.59;5030679;28;45382;-67
2023/12/05 04:16:27;;;;;;;;;0.00;0.00;;;;;9.97;82.94;99734.50;5036319;28;48120;-67
2023/12/05 04:18:53;;;;;;;;;0.00;0.00;;;;;9.81;82.84;99694.34;5045943;28;45542;-68
2023/12/05 04:21:19;;;;;;;;;0.00;0.00;;;;;9.97;82.98;99738.94;5040983;28;45538;-68
2023/12/05 04:23:45;;;;;;;;;0.00;0.00;;;;;9.91;83.39;99726.78;5030688;28;45329;-67
2023/12/05 04:26:28;;;;;;;;;0.00;0.00;;;;;9.90;83.34;99722.38;5039539;28;47061;-68
2023/12/05 04:28:54;;;;;;;;;0.00;0.00;;;;;10.00;83.76;99742.34;5034751;28;45709;-67
2023/12/05 04:31:19;;;;;;;;;0.00;0.00;;;;;9.90;83.13;99727.72;5060115;28;45265;-68
2023/12/05 04:33:44;;;;;;;;;0.00;0.00;;;;;9.71;84.06;99702.84;5061145;28;59664;-67
2023/12/05 04:36:10;;;;;;;;;0.00;0.00;;;;;9.96;83.79;99745.25;5047360;28;46061;-67
2023/12/05 04:38:37;;;;;;;;;0.25;0.00;;;;;9.94;83.90;99747.97;5059119;28;45603;-67
2023/12/05 04:41:03;;;;;;;;;0.00;0.00;;;;;9.96;84.46;99756.75;5025298;28;45393;-68
2023/12/05 04:43:30;;;;;;;;;0.00;0.00;;;;;10.04;83.95;99768.88;5034916;28;45522;-68
2023/12/05 04:45:56;;;;;;;;;0.00;0.00;;;;;9.98;84.45;99768.22;5056414;28;45966;-68
2023/12/05 04:48:21;;;;;;;;;0.00;0.00;;;;;10.00;84.67;99774.34;5040556;28;45293;-67
2023/12/05 04:50:46;;;;;;;;;0.00;0.00;;;;;10.03;84.21;99776.00;5042406;28;55721;-68
2023/12/05 04:53:12;;;;;;;;;0.00;0.00;;;;;10.04;84.72;99777.75;5042664;28;59915;-68
2023/12/05 04:55:37;;;;;;;;;0.00;0.00;;;;;9.98;84.79;99765.53;5038601;28;73906;-67
2023/12/05 04:58:02;;;;;;;;;1.00;0.00;;;;;10.04;84.30;99777.75;5022921;28;45289;-68
2023/12/05 05:00:28;;;;;;;;;0.00;0.00;;;;;10.08;84.57;99770.47;5037698;28;45458;-68
2023/12/05 05:02:53;;;;;;;;;0.00;0.00;;;;;10.14;84.60;99794.16;5041046;28;45436;-68
2023/12/05 05:05:18;;;;;;;;;0.00;0.00;;;;;10.13;84.41;99785.31;5065588;28;46540;-68
2023/12/05 05:07:44;;;;;;;;;0.00;0.00;;;;;10.08;84.27;99778.47;5042682;28;45304;-68
2023/12/05 05:10:09;;;;;;;;;0.00;0.00;;;;;10.08;84.96;99789.13;5053827;28;48831;-68
2023/12/05 05:12:34;;;;;;;;;0.00;0.00;;;;;10.04;84.61;99785.75;5040921;28;45257;-68
2023/12/05 05:15:00;;;;;;;;;0.00;0.00;;;;;10.07;84.79;99800.72;5040719;28;45765;-68
2023/12/05 05:17:25;;;;;;;;;0.00;0.00;;;;;10.12;84.75;99810.28;5052022;28;45539;-68
2023/12/05 05:19:50;;;;;;;;;0.50;0.00;;;;;10.10;84.19;99801.44;5051754;28;45363;-68
2023/12/05 05:22:15;;;;;;;;;0.00;0.00;;;;;10.04;84.94;99799.09;5051204;28;45451;-68
2023/12/05 05:24:41;;;;;;;;;0.00;0.00;;;;;10.07;85.04;99806.06;5042643;28;45409;-68
2023/12/05 05:27:06;;;;;;;;;1.75;0.00;;;;;9.91;84.45;99776.56;5050280;28;46610;-68
2023/12/05 05:29:32;;;;;;;;;0.00;0.00;;;;;10.15;84.97;99825.25;5044320;28;45502;-68
2023/12/05 05:31:57;;;;;;;;;0.00;0.00;;;;;10.10;84.99;99816.59;5048987;28;45516;-68
2023/12/05 05:34:22;;;;;;;;;0.00;0.00;;;;;10.11;84.74;99829.00;5076914;28;46067;-68
2023/12/05 05:36:48;;;;;;;;;0.00;0.00;;;;;10.14;85.08;99832.38;5049442;28;59824;-68
2023/12/05 05:39:13;;;;;;;;;0.00;0.00;;;;;9.98;84.53;99807.34;5058074;28;45522;-68
2023/12/05 05:41:38;;;;;;;;;0.00;0.00;;;;;9.83;84.59;99782.25;5040821;28;52099;-68
2023/12/05 05:44:04;;;;;;;;;0.00;0.00;;;;;10.15;84.93;99844.78;5038351;28;48066;-68
2023/12/05 05:46:30;;;;;;;;;0.00;0.00;;;;;10.02;84.94;99832.91;5052312;28;45439;-68
2023/12/05 05:48:55;;;;;;;;;0.00;0.00;;;;;10.19;85.24;99858.88;5044182;28;45301;-68
2023/12/05 05:51:20;;;;;;;;;0.00;0.00;;;;;10.18;84.48;99852.63;5040101;28;45241;-68
2023/12/05 05:53:46;;;;;;;;;0.00;0.00;;;;;10.10;85.21;99845.94;5038320;28;47523;-68
2023/12/05 05:56:11;;;;;;;;;0.00;0.00;;;;;10.17;84.74;99863.38;5050105;28;57474;-68
2023/12/05 05:58:36;;;;;;;;;1.25;0.00;;;;;9.92;84.90;99832.50;5046120;28;45270;-68
2023/12/05 06:01:01;;;;;;;;;0.25;0.00;;;;;9.98;85.05;99834.00;5052308;28;48062;-68
2023/12/05 06:03:30;;;;;;;;;0.00;0.00;;;;;10.12;84.80;99865.38;5056673;28;45377;-68
2023/12/05 06:05:58;;;;;;;;;0.00;0.00;;;;;9.96;84.69;99835.88;5054598;28;46560;-68
2023/12/05 06:08:23;;;;;;;;;0.00;0.00;;;;;10.14;84.87;99872.41;5037887;28;45465;-68
2023/12/05 06:10:49;;;;;;;;;0.00;0.00;;;;;10.15;84.85;99870.59;5039759;28;57115;-68
2023/12/05 06:13:14;;;;;;;;;0.00;0.00;;;;;10.18;84.76;99881.13;5039634;28;46369;-68
2023/12/05 06:15:39;;;;;;;;;0.00;0.00;;;;;10.26;84.94;99892.31;5039754;28;46981;-68
2023/12/05 06:18:04;;;;;;;;;0.00;0.00;;;;;10.17;84.85;99888.25;5054931;28;45445;-68
2023/12/05 06:20:30;;;;;;;;;0.00;0.00;;;;;10.06;84.61;99873.69;5050588;28;45312;-68
2023/12/05 06:22:55;;;;;;;;;0.00;0.00;;;;;10.14;84.88;99896.41;5047211;28;46791;-68
2023/12/05 06:25:20;;;;;;;;;0.00;0.00;;;;;10.17;84.72;99903.38;5038590;28;65501;-68
2023/12/05 06:27:46;;;;;;;;;0.00;0.00;;;;;10.07;84.40;99878.91;5044350;28;45450;-68
2023/12/05 06:30:11;;;;;;;;;0.00;0.00;;;;;9.99;85.11;99875.75;5039635;28;45404;-68
2023/12/05 06:32:37;;;;;;;;;0.00;0.00;;;;;10.13;84.53;99907.13;5053236;28;45410;-68
2023/12/05 06:35:02;;;;;;;;;0.00;0.00;;;;;9.93;84.63;99871.53;5033680;28;66506;-68
2023/12/05 06:37:27;;;;;;;;;0.00;0.00;;;;;10.03;84.01;99904.00;5052775;28;45825;-68
2023/12/05 06:39:53;;;;;;;;;0.00;0.00;;;;;10.16;84.69;99923.84;5052603;28;45599;-69
2023/12/05 06:42:18;;;;;;;;;0.00;0.00;;;;;10.22;84.93;99937.84;5046622;28;46141;-70
2023/12/05 06:44:43;;;;;;;;;0.00;0.00;;;;;9.98;84.36;99914.00;5034845;28;45280;-70
2023/12/05 06:47:09;;;;;;;;;0.00;0.00;;;;;10.07;84.86;99920.72;5037101;28;45315;-69
2023/12/05 06:49:34;;;;;;;;;0.00;0.00;;;;;10.19;84.72;99937.06;5057469;28;45336;-69
2023/12/05 06:52:02;;;;;;;;;2.00;0.50;;;;;9.99;84.59;99916.59;5050736;28;45560;-69
2023/12/05 06:54:28;;;;;;;;;0.00;0.00;;;;;9.98;84.38;99925.50;5039150;28;45488;-69
2023/12/05 06:56:53;;;;;;;;;0.00;0.00;;;;;10.08;84.10;99936.66;5036639;28;45629;-69
2023/12/05 06:59:19;;;;;;;;;0.50;0.50;;;;;10.01;84.29;99917.38;5049275;28;62939;-69
2023/12/05 07:01:44;;;;;;;;;0.00;0.00;;;;;10.13;84.49;99956.00;5051882;28;45832;-68
2023/12/05 07:04:10;;;;;;;;;0.00;0.00;;;;;10.13;84.08;99961.31;5038778;28;45347;-68
2023/12/05 07:06:35;;;;;;;;;1.00;0.00;;;;;10.17;84.05;99962.94;5058019;28;45440;-68
2023/12/05 07:09:01;;;;;;;;;1.00;1.00;;;;;10.13;84.44;99960.47;5040952;28;45720;-69
2023/12/05 07:11:28;;;;;;;;;0.25;0.25;;;;;10.05;84.11;99954.59;5030620;28;46225;-69
2023/12/05 07:13:54;;;;;;;;;0.00;0.00;;;;;10.23;84.01;99990.28;5069592;28;45377;-69
2023/12/05 07:16:20;;;;;;;;;1.00;0.50;;;;;10.18;84.45;99996.66;5024266;28;45375;-69
2023/12/05 07:18:45;;;;;;;;;0.75;0.00;;;;;10.12;84.26;99980.94;5038935;28;45464;-68
2023/12/05 07:21:11;;;;;;;;;1.00;1.00;;;;;10.05;84.29;99968.78;5038583;28;45467;-69
2023/12/05 07:23:36;;;;;;;;;0.00;0.00;;;;;10.06;84.24;99972.34;5032164;28;45964;-69
2023/12/05 07:26:02;;;;;;;;;1.00;1.00;;;;;10.15;84.36;99993.25;5023457;28;45455;-70
2023/12/05 07:28:28;;;;;;;;;0.00;0.00;;;;;10.24;84.27;100014.22;5025379;28;46646;-69
2023/12/05 07:30:53;;;;;;;;;0.00;0.00;;;;;10.22;84.17;100010.72;5043610;28;45310;-70
2023/12/05 07:33:18;;;;;;;;;1.00;1.00;;;;;10.09;84.44;99991.72;5032501;28;45538;-69
2023/12/05 07:35:44;;;;;;;;;0.50;0.50;;;;;10.09;84.38;99994.41;5040931;28;45423;-69
2023/12/05 07:38:09;;;;;;;;;0.25;0.25;;;;;10.15;84.64;100006.59;5055480;28;63197;-69
2023/12/05 07:40:34;;;;;;;;;0.25;0.25;;;;;10.13;84.44;100001.31;5039172;28;58163;-69
2023/12/05 07:43:00;;;;;;;;;0.00;0.00;;;;;9.91;84.34;99980.03;5040436;28;45410;-69
2023/12/05 07:45:25;;;;;;;;;2.00;0.75;;;;;10.04;84.36;100000.84;5039759;28;51786;-69
2023/12/05 07:47:50;;;;;;;;;1.00;1.00;;;;;10.28;84.15;100045.16;5041844;28;45476;-70
2023/12/05 07:50:16;;;;;;;;;1.00;0.00;;;;;10.13;84.31;100009.31;5029531;28;47463;-69
2023/12/05 07:52:42;;;;;;;;;0.00;0.00;;;;;10.01;84.20;100002.72;5031844;28;45416;-69
2023/12/05 07:55:07;;;;;;;;;1.50;0.50;;;;;10.13;83.98;100028.00;5054319;28;45539;-70
2023/12/05 07:57:33;;;;;;;;;0.50;0.50;;;;;10.32;84.44;100054.81;5043161;28;45767;-70
2023/12/05 07:59:59;;;;;;;;;0.25;0.25;;;;;10.16;83.99;100025.19;5051279;28;48320;-69
2023/12/05 08:02:25;;;;;;;;;0.50;0.50;;;;;10.13;83.98;100030.66;5043273;28;45340;-70
2023/12/05 08:04:50;;;;;;;;;1.00;0.00;;;;;10.32;84.10;100070.81;5040733;28;45602;-69
2023/12/05 08:07:15;;;;;;;;;0.50;0.50;;;;;10.30;84.07;100071.75;5029304;28;45579;-69
2023/12/05 08:09:41;;;;;;;;;1.00;1.00;;;;;10.27;84.34;100070.06;5053035;28;47315;-69
2023/12/05 08:12:06;;;;;;;;;0.00;0.00;;;;;10.08;83.43;100032.66;5054456;28;53992;-69
2023/12/05 08:14:32;;;;;;;;;1.00;1.00;;;;;10.31;83.49;100068.19;5061507;28;45424;-69
2023/12/05 08:16:57;;;;;;;;;1.00;1.00;;;;;10.10;84.07;100037.94;5046272;28;53181;-69
2023/12/05 08:19:22;;;;;;;;;2.00;1.00;;;;;10.36;83.73;100075.06;5034104;28;46902;-69
2023/12/05 08:21:47;;;;;;;;;3.25;1.50;;;;;10.36;83.68;100082.22;5042736;28;52622;-69
2023/12/05 08:24:13;;;;;;;;;0.50;0.50;;;;;10.36;83.35;100087.56;5054582;28;60398;-69
2023/12/05 08:26:38;;;;;;;;;1.50;1.00;;;;;10.38;83.77;100099.03;5047024;28;45324;-69
2023/12/05 08:29:03;;;;;;;;;1.00;1.00;;;;;10.29;83.29;100089.59;5051403;28;45453;-69
2023/12/05 08:31:29;;;;;;;;;0.50;0.50;;;;;10.28;83.76;100092.31;5051183;28;45574;-69
2023/12/05 08:33:54;;;;;;;;;0.00;0.00;;;;;10.34;83.61;100111.63;5052712;28;45449;-69
2023/12/05 08:36:19;;;;;;;;;2.00;1.00;;;;;10.33;84.05;100109.88;5044631;28;45379;-69
2023/12/05 08:38:45;;;;;;;;;0.00;0.00;;;;;10.34;83.52;100116.97;5058242;28;45442;-69
2023/12/05 08:41:18;;;;;;;;;1.00;1.00;;;;;10.25;83.69;100095.94;5032985;28;65610;-69
2023/12/05 08:43:43;;;;;;;;;1.25;1.00;;;;;10.32;83.58;100113.50;5055377;28;45547;-69
2023/12/05 08:46:09;;;;;;;;;1.00;1.00;;;;;10.39;83.47;100122.13;5052088;28;45733;-69
2023/12/05 08:48:34;;;;;;;;;1.00;1.00;;;;;10.27;83.33;100114.56;5052738;28;60166;-70
2023/12/05 08:50:59;;;;;;;;;1.00;1.00;;;;;10.30;83.59;100115.31;5040470;28;45422;-69
2023/12/05 08:53:24;;;;;;;;;1.00;1.00;;;;;10.32;83.49;100116.16;5049157;28;45920;-69
2023/12/05 08:55:50;;;;;;;;;1.25;1.00;;;;;10.37;82.93;100137.28;5044892;28;45588;-69
2023/12/05 08:58:16;;;;;;;;;1.00;1.00;;;;;10.42;83.36;100143.31;5050454;28;48518;-70
2023/12/05 09:00:41;;;;;;;;;1.00;1.00;;;;;10.42;83.45;100131.78;5033812;28;45429;-69
2023/12/05 09:03:06;;;;;;;;;0.50;0.50;;;;;10.40;83.34;100152.31;5051692;28;45770;-70
2023/12/05 09:05:32;;;;;;;;;0.50;0.50;;;;;10.34;83.54;100140.09;5058959;28;45336;-69
2023/12/05 09:07:57;;;;;;;;;0.75;0.75;;;;;10.29;83.23;100142.03;5039294;28;52578;-70
2023/12/05 09:10:22;;;;;;;;;1.00;1.00;;;;;10.42;83.20;100153.13;5058209;28;45433;-69
2023/12/05 09:12:47;;;;;;;;;0.50;0.50;;;;;10.38;83.39;100147.91;5060061;28;45515;-69
2023/12/05 09:15:13;;;;;;;;;0.00;0.00;;;;;10.42;83.26;100151.31;5056921;28;45485;-70
2023/12/05 09:17:38;;;;;;;;;2.50;1.00;;;;;10.40;83.45;100147.00;5052513;28;46164;-69
2023/12/05 09:20:04;;;;;;;;;1.25;0.75;;;;;10.45;83.71;100177.00;5051946;28;45260;-69
2023/12/05 09:22:29;;;;;;;;;1.50;1.50;;;;;10.40;83.65;100169.19;5042287;28;45453;-70
2023/12/05 09:24:55;;;;;;;;;0.25;0.25;;;;;10.37;83.14;100172.88;5054233;28;45453;-70
2023/12/05 09:27:20;;;;;;;;;2.00;0.75;;;;;10.44;83.33;100180.59;5037188;28;65652;-70
2023/12/05 09:29:46;;;;;;;;;0.50;0.50;;;;;10.36;83.52;100173.78;5039846;28;45574;-70
2023/12/05 09:32:11;;;;;;;;;0.50;0.00;;;;;10.46;83.53;100190.28;5047535;28;45455;-70
2023/12/05 09:34:36;;;;;;;;;1.00;0.00;;;;;10.45;83.25;100185.03;5054291;28;45490;-70
2023/12/05 09:37:02;;;;;;;;;1.00;0.00;;;;;10.47;82.86;100192.00;5052755;28;46241;-69
2023/12/05 09:39:29;;;;;;;;;0.00;0.00;;;;;10.45;82.98;100185.03;5058170;28;45532;-70
2023/12/05 09:41:57;;;;;;;;;1.00;1.00;;;;;10.46;82.98;100197.44;5052406;28;45404;-69
2023/12/05 09:44:25;;;;;;;;;1.50;1.00;;;;;10.56;83.07;100214.81;5045182;28;45553;-70
2023/12/05 09:46:54;;;;;;;;;0.25;0.25;;;;;10.46;82.76;100200.97;5014685;28;61316;-70
2023/12/05 09:49:26;;;;;;;;;1.00;1.00;;;;;10.41;82.76;100202.06;5042944;28;45466;-70
2023/12/05 09:51:52;;;;;;;;;1.00;1.00;;;;;10.40;82.51;100192.34;5066424;28;45417;-69
2023/12/05 09:54:18;;;;;;;;;0.00;0.00;;;;;10.56;82.69;100220.16;5036788;28;45510;-70
2023/12/05 09:56:44;;;;;;;;;1.00;1.00;;;;;10.46;83.05;100202.78;5052053;28;45484;-70
2023/12/05 09:59:10;;;;;;;;;2.50;1.25;;;;;10.61;82.90;100230.63;5056230;28;45509;-69
2023/12/05 10:01:36;;;;;;;;;2.50;1.00;;;;;10.51;83.16;100216.81;5058870;28;45378;-70
2023/12/05 10:04:02;;;;;;;;;1.00;1.00;;;;;10.56;83.07;100226.34;5029728;28;45423;-70
2023/12/05 10:06:29;;;;;;;;;2.00;2.00;;;;;10.54;83.18;100224.66;5024988;28;47299;-69
2023/12/05 10:08:56;;;;;;;;;2.50;2.50;;;;;10.56;82.96;100233.50;5057052;28;45425;-70
2023/12/05 10:11:27;;;;;;;;;1.00;1.00;;;;;10.49;82.73;100226.66;5044202;28;45499;-69
2023/12/05 10:13:52;;;;;;;;;1.25;1.25;;;;;10.48;82.54;100227.59;5058075;28;45366;-70
2023/12/05 10:16:19;;;;;;;;;1.00;1.00;;;;;10.61;82.51;100247.53;5046806;28;46764;-70
2023/12/05 10:18:46;;;;;;;;;3.25;2.75;;;;;10.64;82.89;100243.84;5048576;28;45419;-69
2023/12/05 10:21:11;;;;;;;;;2.00;2.00;;;;;10.70;82.69;100257.81;5058139;28;45386;-70
2023/12/05 10:23:37;;;;;;;;;2.00;2.00;;;;;10.68;82.46;100250.81;5042922;28;51548;-69
2023/12/05 10:26:03;;;;;;;;;2.00;1.00;;;;;10.67;81.84;100249.91;5044898;28;45491;-70
2023/12/05 10:28:28;;;;;;;;;2.00;2.00;;;;;10.56;81.60;100242.34;5028112;28;45505;-69
2023/12/05 10:30:54;;;;;;;;;2.00;2.00;;;;;10.64;82.10;100247.41;5033314;28;49379;-69
2023/12/05 10:33:21;;;;;;;;;0.25;0.25;;;;;10.68;82.76;100264.16;5051522;28;45406;-69
2023/12/05 10:35:47;;;;;;;;;1.00;1.00;;;;;10.59;82.25;100257.38;5045477;28;45542;-70
2023/12/05 10:38:17;;;;;;;;;4.00;2.00;;;;;10.41;82.04;100224.31;5047924;28;45580;-70
2023/12/05 10:40:56;;;;;;;;;1.00;1.00;;;;;10.57;81.84;100253.91;5047099;28;45483;-70
2023/12/05 10:43:28;;;;;;;;;2.75;2.75;;;;;10.63;81.58;100271.47;5042988;28;45596;-69
2023/12/05 10:45:54;;;;;;;;;1.50;1.50;;;;;10.61;81.53;100263.53;5047006;28;46342;-70
2023/12/05 10:48:20;;;;;;;;;1.00;1.00;;;;;10.63;81.56;100280.34;5045763;28;45623;-70
2023/12/05 10:50:47;;;;;;;;;0.00;0.00;;;;;10.64;81.74;100275.88;5048680;28;45562;-72
2023/12/05 10:53:14;;;;;;;;;1.00;1.00;;;;;10.47;81.69;100250.72;5050017;28;45550;-69
2023/12/05 10:55:40;;;;;;;;;1.50;1.50;;;;;10.36;81.63;100242.28;5031198;28;47087;-70
2023/12/05 10:58:07;;;;;;;;;1.00;1.00;;;;;10.54;81.46;100272.69;5045412;28;45489;-70
2023/12/05 11:00:34;;;;;;;;;1.50;0.75;;;;;10.61;81.47;100287.56;5043989;28;45565;-70
2023/12/05 11:03:02;;;;;;;;;0.00;0.00;;;;;10.62;82.16;100285.75;5041000;28;45535;-70
2023/12/05 11:05:28;;;;;;;;;2.00;0.25;;;;;10.56;81.76;100287.72;5047604;28;46208;-70
2023/12/05 11:07:54;;;;;;;;;1.00;1.00;;;;;10.68;81.24;100306.88;5032901;28;45512;-70
2023/12/05 11:10:19;;;;;;;;;1.75;1.75;;;;;10.50;81.47;100271.09;5037766;28;45755;-70
2023/12/05 11:12:49;;;;;;;;;3.00;1.00;;;;;10.62;81.09;100281.25;5054869;28;45302;-70
2023/12/05 11:15:18;;;;;;;;;2.00;2.00;;;;;10.63;80.74;100280.34;5053439;28;46528;-71
2023/12/05 11:18:06;;;;;;;;;1.75;1.75;;;;;10.79;81.31;100306.41;5053233;28;45354;-70
2023/12/05 11:20:59;;;;;;;;;2.00;2.00;;;;;10.77;81.02;100306.47;5050841;28;45374;-70
2023/12/05 11:23:48;;;;;;;;;1.25;1.25;;;;;10.78;80.73;100305.56;5046432;28;45617;-70
2023/12/05 11:26:23;;;;;;;;;1.00;1.00;;;;;10.80;81.11;100302.84;5051303;28;45497;-70
2023/12/05 11:29:04;;;;;;;;;1.00;1.00;;;;;10.83;81.30;100308.06;5050303;28;46209;-69